This is the latest recevied weather packets stored in our database for station/object GW1573. If no packets are shown the sender has not sent any weather packets the latest 10 day(s).
| Time | Temp. | Humidity | Pressure | Rain* | Wind** | Luminosity | Snow |
|---|---|---|---|---|---|---|---|
| 1777600495 | 4.44° C | 97% | 1016.9 hPa | 1.27 mm | - | - | - |
| 1777598332 | 5° C | 93% | 1016.5 hPa | 1.27 mm | - | - | - |
| 1777595807 | 6.67° C | 85% | 1015.9 hPa | 1.27 mm | - | - | - |
| 1777592921 | 10.56° C | 62% | 1015.5 hPa | 1.27 mm | - | - | - |
| 1777590413 | 11.67° C | 64% | 1015.9 hPa | 1.27 mm | - | - | - |
| 1777588951 | 13.33° C | 59% | 1015.5 hPa | 1.27 mm | - | - | - |
| 1777584619 | 14.44° C | 54% | 1015.5 hPa | 1.27 mm | - | - | - |
| 1777583566 | 13.33° C | 60% | 1015.5 hPa | 1.27 mm | - | - | - |
| 1777573462 | 8.89° C | 91% | 1016.2 hPa | 1.02 mm | - | - | - |
| 1777573122 | 8.89° C | 89% | 1016.2 hPa | 0.76 mm | - | - | - |
| 1777568074 | 11.11° C | 71% | 1015.9 hPa | 0.25 mm | - | - | - |
| 1777564853 | 10.56° C | 70% | 1015.9 hPa | 0.25 mm | - | - | - |
| 1777564461 | 10.56° C | 72% | 1015.9 hPa | 0.25 mm | - | - | - |
| 1777555118 | 8.89° C | 83% | 1014.9 hPa | 0.25 mm | - | - | - |
| 1777554031 | 9.44° C | 82% | 1014.9 hPa | 0.25 mm | - | - | - |
| 1777552218 | 8.33° C | 85% | 1014.5 hPa | 0.25 mm | - | - | - |
| 1777547553 | 6.11° C | 96% | 1013.2 hPa | 0.25 mm | - | - | - |
| 1777543972 | 6.67° C | 95% | 1012.8 hPa | 0 mm | - | - | - |
| 1777541793 | 7.22° C | 93% | 1012.8 hPa | 0 mm | - | - | - |
| 1777541092 | 6.67° C | 94% | 1012.8 hPa | 0 mm | - | - | - |
| 1777539636 | 7.22° C | 96% | 1012.8 hPa | 0 mm | - | - | - |
| 1777533490 | 8.33° C | 98% | 1012.8 hPa | 0 mm | - | - | - |
| 1777533164 | 8.33° C | 99% | 1013.2 hPa | 0 mm | - | - | - |
| 1777529177 | 8.89° C | 99% | 1013.2 hPa | 0 mm | - | - | - |
| 1777525575 | 8.89° C | 99% | 1013.2 hPa | 0 mm | - | - | - |
* Rain since midnight (hover to see other rain measurements)
** Current wind speed in m/s (hover to see current wind gust speed)